Latest Weather Observations for Gatton

IDQ60901

Issued at 8:05 pm EST Thursday 21 August 2014 (issued every 10 minutes, with the page automatically refreshed every 10 minutes)

About weather observations | Map of Brisbane area stations | Latest observations for Brisbane area | Other Formats
Station Details ID: 040082 Name: UNIVERSITY OF QUEENSLAND GATTON Lat: -27.54 Lon: 152.34 Height: 89.0 m
Data from the previous 72 hours. | See also: Recent months at Gatton
Date/Time
EST
Tmp

°C
App
Tmp
°C
Dew
Point
°C
Rel
Hum
%
Delta-T

°C
Wind Press
QNH
hPa
Press
MSL
hPa
Rain
since
9 am
mm
Dir
 
Spd
km/h
Gust
km/h
Spd
kts
Gust
kts
21/08:00pm 16.3 12.4 9.5 64 3.5 SE 20 28 11 15 - - 0.0
21/07:30pm 16.6 12.7 9.3 62 3.8 SE 20 26 11 14 - - 0.0
21/07:00pm 16.8 13.0 9.0 60 4.0 SE 19 26 10 14 - - 0.0
21/06:30pm 17.0 13.2 9.2 60 4.1 SSE 19 26 10 14 - - 0.0
21/06:00pm 17.3 13.0 9.2 59 4.2 SE 22 32 12 17 - - 0.0
21/05:30pm 18.3 13.6 9.1 55 4.8 SE 24 35 13 19 - - 0.0
21/05:00pm 19.1 13.3 8.1 49 5.7 SE 28 41 15 22 - - 0.0
21/04:30pm 20.4 15.3 9.3 49 5.9 SE 26 35 14 19 - - 0.0
21/04:00pm 21.1 16.1 9.4 47 6.3 SE 26 35 14 19 - - 0.0
21/03:30pm 21.8 16.7 9.3 45 6.7 SE 26 37 14 20 - - 0.0
21/03:00pm 22.4 17.7 9.2 43 7.1 SE 24 33 13 18 - - 0.0
21/02:30pm 21.9 17.5 8.8 43 7.0 SE 22 30 12 16 - - 0.0
21/02:00pm 22.7 18.8 9.5 43 7.2 ESE 20 32 11 17 - - 0.0
21/01:30pm 22.3 17.7 8.1 40 7.5 ESE 22 30 12 16 - - 0.0
21/01:00pm 22.3 17.9 9.1 43 7.1 SE 22 35 12 19 - - 0.0
21/12:30pm 21.7 17.3 8.9 44 6.8 SE 22 32 12 17 - - 0.0
21/12:00pm 21.6 16.9 9.2 45 6.6 SE 24 35 13 19 - - 0.0
21/11:30am 20.9 15.2 8.5 45 6.5 SE 28 44 15 24 - - 0.0
21/11:00am 21.2 16.1 9.1 46 6.5 SE 26 39 14 21 - - 0.0
21/10:30am 20.2 16.1 8.5 47 6.1 SSE 20 26 11 14 - - 0.0
21/10:00am 19.6 15.1 8.6 49 5.8 SE 22 33 12 18 - - 0.0
21/09:30am 17.6 15.7 9.2 58 4.4 S 9 20 5 11 - - 0.0
21/09:00am 15.1 13.6 9.0 67 3.1 W 7 11 4 6 - - 0.0
21/08:30am 13.3 11.3 8.8 74 2.3 W 9 13 5 7 - - 0.0
21/08:00am 11.4 8.9 8.3 81 1.5 W 11 15 6 8 - - 0.0
21/07:30am 9.9 6.9 7.5 85 1.1 W 13 17 7 9 - - 0.0
21/07:00am 8.6 6.2 6.9 89 0.8 WSW 9 15 5 8 - - 0.0
21/06:30am 8.0 5.5 6.6 91 0.6 WSW 9 15 5 8 - - 0.0
21/06:00am 7.4 4.8 5.9 90 0.7 W 9 11 5 6 - - 0.0
21/05:30am 7.5 5.2 5.8 89 0.8 WSW 7 11 4 6 - - 0.0
21/05:00am 8.1 6.0 6.6 90 0.7 WSW 7 11 4 6 - - 0.0
21/04:30am 8.0 5.5 6.5 90 0.7 WSW 9 11 5 6 - - 0.0
21/04:00am 7.9 5.4 6.4 90 0.7 W 9 11 5 6 - - 0.0
21/03:30am 6.8 4.4 5.1 89 0.8 WSW 7 11 4 6 - - 0.0
21/03:00am 7.6 6.6 5.7 88 0.9 CALM 0 0 0 0 - - 0.0
21/02:30am 8.2 7.3 6.0 86 1.0 CALM 0 0 0 0 - - 0.0
21/02:00am 8.4 7.6 6.4 87 0.9 CALM 0 0 0 0 - - 0.0
21/01:30am 9.0 8.2 6.6 85 1.1 CALM 0 0 0 0 - - 0.0
21/01:00am 10.3 9.7 7.5 83 1.3 CALM 0 0 0 0 - - 0.0
21/12:30am 10.9 10.1 6.6 75 2.0 CALM 0 0 0 0 - - 0.0
21/12:00am 13.3 11.6 8.4 72 2.5 E 7 9 4 5 - - 0.0
 
Date/Time
EST
Tmp

°C
App
Tmp
°C
Dew
Point
°C
Rel
Hum
%
Delta-T

°C
Wind Press
QNH
hPa
Press
MSL
hPa
Rain
since
9 am
mm
Dir
 
Spd
km/h
Gust
km/h
Spd
kts
Gust
kts
20/11:30pm 14.4 11.7 8.8 69 2.8 SE 13 19 7 10 - - 0.0
20/11:00pm 13.7 11.6 8.1 69 2.8 ESE 9 13 5 7 - - 0.0
20/10:30pm 14.3 12.2 8.3 67 3.0 ESE 9 15 5 8 - - 0.0
20/10:00pm 15.1 12.2 8.3 64 3.4 SE 13 17 7 9 - - 0.0
20/09:30pm 15.1 13.0 8.3 64 3.4 SE 9 11 5 6 - - 0.0
20/09:00pm 16.2 13.6 9.2 63 3.6 E 13 17 7 9 - - 0.0
20/08:30pm 15.6 14.1 10.4 71 2.8 ESE 9 11 5 6 - - 0.0
20/08:00pm 16.2 14.9 10.1 67 3.2 E 7 9 4 5 - - 0.0
20/07:30pm 17.5 16.0 10.4 63 3.8 NE 9 13 5 7 - - 0.0
20/07:00pm 18.2 15.9 10.3 60 4.2 NE 13 19 7 10 - - 0.0
20/06:30pm 18.8 16.0 8.7 52 5.3 E 13 19 7 10 - - 0.0
20/06:00pm 19.4 15.7 7.8 47 6.0 SE 17 28 9 15 - - 0.0
20/05:30pm 20.6 16.9 7.9 44 6.6 SE 17 26 9 14 - - 0.0
20/05:00pm 21.5 18.4 7.3 40 7.3 ESE 13 17 7 9 - - 0.0
20/04:30pm 22.6 20.1 6.4 35 8.3 ESE 9 15 5 8 - - 0.0
20/04:00pm 22.8 20.2 6.1 34 8.5 E 9 13 5 7 - - 0.0
20/03:30pm 23.0 20.8 6.3 34 8.6 NE 7 15 4 8 - - 0.0
20/03:00pm 22.9 19.9 6.2 34 8.5 NNE 11 15 6 8 - - 0.0
20/02:30pm 23.0 20.6 7.1 36 8.3 SE 9 17 5 9 - - 0.0
20/02:00pm 21.8 19.3 6.5 37 7.8 SSE 9 19 5 10 - - 0.0
20/01:30pm 22.5 20.5 7.1 37 8.0 N 7 17 4 9 - - 0.0
20/01:00pm 22.1 19.7 7.1 38 7.8 E 9 15 5 8 - - 0.0
20/12:30pm 21.2 18.6 6.3 38 7.5 S 9 15 5 8 - - 0.0
20/12:00pm 21.5 19.3 7.7 41 7.2 NE 9 19 5 10 - - 0.0
20/11:30am 21.1 18.5 7.7 42 7.0 ESE 11 20 6 11 - - 0.0
20/11:00am 19.6 17.8 8.0 47 6.0 N 7 17 4 9 - - 0.0
20/10:30am 19.8 17.8 8.8 49 5.8 SSE 9 13 5 7 - - 0.0
20/10:00am 17.9 16.3 7.9 52 5.1 S 6 11 3 6 - - 0.0
20/09:30am 16.5 15.0 9.0 61 3.9 W 7 11 4 6 - - 0.0
20/09:00am 15.1 12.8 9.0 67 3.1 W 11 13 6 7 - - 0.0
20/08:30am 13.5 10.8 8.8 73 2.4 W 13 17 7 9 - - 0.0
20/08:00am 12.0 10.0 8.7 80 1.6 W 9 13 5 7 - - 0.0
20/07:30am 10.2 8.0 8.0 86 1.1 W 9 13 5 7 - - 0.0
20/07:00am 8.7 6.7 7.3 91 0.7 W 7 11 4 6 - - 0.0
20/06:30am 7.0 4.6 5.3 89 0.8 W 7 9 4 5 - - 0.0
20/06:00am 7.8 4.9 6.3 90 0.7 W 11 13 6 7 - - 0.0
20/05:30am 7.9 5.0 6.4 90 0.7 WSW 11 15 6 8 - - 0.0
20/05:00am 8.4 5.5 6.5 88 0.9 WSW 11 13 6 7 - - 0.0
20/04:30am 9.1 6.0 7.1 87 0.9 WSW 13 17 7 9 - - 0.0
20/04:00am 9.4 6.3 7.3 87 1.0 WSW 13 15 7 8 - - 0.0
20/03:30am 9.4 6.7 7.2 86 1.0 WSW 11 15 6 8 - - 0.0
20/03:00am 9.7 6.6 7.3 85 1.1 W 13 17 7 9 - - 0.0
20/02:30am 9.5 6.7 6.9 84 1.2 WSW 11 13 6 7 - - 0.0
20/02:00am 10.3 8.0 7.5 83 1.3 W 9 11 5 6 - - 0.0
20/01:30am 10.9 8.6 7.6 80 1.6 W 9 13 5 7 - - 0.0
20/01:00am 11.3 9.0 7.4 77 1.9 WSW 9 13 5 7 - - 0.0
20/12:30am 12.9 10.1 8.4 74 2.2 W 13 17 7 9 - - 0.0
20/12:00am 13.1 10.2 8.2 72 2.4 W 13 19 7 10 - - 0.0
 
Date/Time
EST
Tmp

°C
App
Tmp
°C
Dew
Point
°C
Rel
Hum
%
Delta-T

°C
Wind Press
QNH
hPa
Press
MSL
hPa
Rain
since
9 am
mm
Dir
 
Spd
km/h
Gust
km/h
Spd
kts
Gust
kts
19/11:30pm 13.1 10.3 8.4 73 2.3 W 13 19 7 10 - - 0.0
19/11:00pm 12.8 10.6 7.9 72 2.4 W 9 13 5 7 - - 0.0
19/10:30pm 13.3 10.7 7.7 69 2.8 W 11 15 6 8 - - 0.0
19/10:00pm 14.0 10.7 8.0 67 3.0 W 15 19 8 10 - - 0.0
19/09:30pm 14.6 11.6 7.9 64 3.3 WSW 13 17 7 9 - - 0.0
19/09:00pm 14.0 11.0 7.5 65 3.2 WSW 13 17 7 9 - - 0.0
19/08:30pm 14.3 12.3 7.1 62 3.5 WSW 7 11 4 6 - - 0.0
19/08:00pm 14.8 12.8 6.9 59 3.9 WSW 7 11 4 6 - - 0.0
19/07:30pm 15.6 11.7 7.1 57 4.2 WSW 17 24 9 13 - - 0.0
19/07:00pm 16.1 11.8 7.1 55 4.5 SW 19 30 10 16 - - 0.0
19/06:30pm 16.5 12.2 6.9 53 4.8 WSW 19 28 10 15 - - 0.0
19/06:00pm 17.3 12.0 6.8 50 5.2 WSW 24 35 13 19 - - 0.0
19/05:30pm 17.9 12.9 6.4 47 5.7 WSW 22 35 12 19 - - 0.0
19/05:00pm 18.7 13.0 6.5 45 6.1 WSW 26 37 14 20 - - 0.0
19/04:30pm 19.2 13.1 6.7 44 6.3 WSW 28 43 15 23 - - 0.0
19/04:00pm 19.4 13.3 6.5 43 6.5 WSW 28 39 15 21 - - 0.0
19/03:30pm 20.2 13.7 6.5 41 6.9 WSW 30 44 16 24 - - 0.0
19/03:15pm 20.4 14.4 7.1 42 6.8 WSW 28 46 15 25 - - 0.0
19/03:00pm 20.3 13.9 7.0 42 6.8 WSW 30 41 16 22 - - 0.0
19/02:36pm 21.2 14.7 6.7 39 7.4 WSW 30 48 16 26 - - 0.0
19/02:30pm 21.6 15.7 7.4 40 7.4 WSW 28 43 15 23 - - 0.0
19/02:00pm 21.1 15.2 7.3 41 7.1 WSW 28 39 15 21 - - 0.0
19/01:30pm 21.0 15.3 6.9 40 7.2 W 26 41 14 22 - - 0.0
19/01:00pm 21.0 14.7 7.3 41 7.1 WSW 30 43 16 23 - - 0.0
19/12:30pm 20.5 14.6 7.5 43 6.7 WSW 28 41 15 22 - - 0.0
19/12:00pm 20.6 14.9 8.3 45 6.4 WSW 28 44 15 24 - - 0.0
19/11:30am 19.6 14.7 8.3 48 5.9 WSW 24 39 13 21 - - 0.0
19/11:00am 19.1 13.9 8.7 51 5.4 W 26 37 14 20 - - 0.0
19/10:30am 18.9 14.4 8.6 51 5.4 SW 22 37 12 20 - - 0.0
19/10:00am 18.1 12.8 8.4 53 5.0 WSW 26 35 14 19 - - 0.0
19/09:30am 17.3 12.3 8.2 55 4.7 WSW 24 37 13 20 - - 0.0
19/09:00am 17.0 12.2 8.7 58 4.3 WSW 24 33 13 18 - - 0.0
19/08:30am 16.4 12.0 8.9 61 3.9 W 22 32 12 17 - - 0.0
19/08:00am 15.4 11.3 8.6 64 3.5 W 20 28 11 15 - - 0.0
19/07:30am 14.3 10.7 8.5 68 2.9 W 17 24 9 13 - - 0.0
19/07:00am 13.9 9.7 8.3 69 2.8 W 20 28 11 15 - - 0.0
19/06:30am 13.5 10.2 8.1 70 2.7 W 15 20 8 11 - - 0.0
19/06:00am 13.3 10.0 8.0 70 2.6 W 15 24 8 13 - - 0.0
19/05:30am 13.2 9.8 7.6 69 2.8 W 15 24 8 13 - - 0.0
19/05:00am 13.2 9.0 7.4 68 2.8 W 19 28 10 15 - - 0.0
19/04:30am 13.7 8.2 7.7 67 3.0 W 26 39 14 21 - - 0.0
19/04:00am 13.6 9.3 7.8 68 2.9 WSW 20 37 11 20 - - 0.0
19/03:30am 13.2 9.8 7.6 69 2.8 W 15 28 8 15 - - 0.0
19/03:00am 13.5 10.5 7.7 68 2.9 W 13 20 7 11 - - 0.0
19/02:30am 13.6 10.9 7.4 66 3.0 W 11 19 6 10 - - 0.0
19/02:00am 13.9 10.8 7.2 64 3.3 W 13 20 7 11 - - 0.0
19/01:30am 14.4 10.0 7.2 62 3.5 W 20 35 11 19 - - 0.0
19/01:00am 14.9 10.1 7.2 60 3.8 WSW 22 33 12 18 - - 0.0
19/12:30am 15.1 10.3 7.2 59 3.9 WSW 22 35 12 19 - - 0.0
19/12:00am 15.4 11.1 6.9 57 4.2 WSW 19 32 10 17 - - 0.0
 
Date/Time
EST
Tmp

°C
App
Tmp
°C
Dew
Point
°C
Rel
Hum
%
Delta-T

°C
Wind Press
QNH
hPa
Press
MSL
hPa
Rain
since
9 am
mm
Dir
 
Spd
km/h
Gust
km/h
Spd
kts
Gust
kts
18/11:30pm 15.6 9.9 6.9 56 4.3 WSW 26 39 14 21 - - 0.0
18/11:00pm 15.9 11.0 6.9 55 4.4 WSW 22 35 12 19 - - 0.0
18/10:30pm 16.1 10.0 6.5 53 4.7 WSW 28 37 15 20 - - 0.0
18/10:00pm 16.3 9.8 6.4 52 4.9 W 30 43 16 23 - - 0.0
18/09:30pm 16.2 11.6 6.6 53 4.7 WSW 20 30 11 16 - - 0.0
18/09:00pm 16.3 11.7 6.7 53 4.7 W 20 32 11 17 - - 0.0
18/08:30pm 16.4 11.0 6.5 52 4.9 W 24 37 13 20 - - 0.0

Latest Capital City Observations: Canberra | Sydney | Melbourne | Brisbane | Adelaide | Perth | Hobart | Darwin

Other Formats:

Comma delimited format used in spreadsheet applications
http://www.bom.gov.au/fwo/IDQ60901/IDQ60901.94562.axf

JavaScript Object Notation format (JSON) in row-major order
http://www.bom.gov.au/fwo/IDQ60901/IDQ60901.94562.json